createdAt,value
2022-08-10T00:00:32.388Z,22.88
2022-08-10T00:02:36.567Z,22.87
2022-08-10T00:04:39.628Z,22.85
2022-08-10T00:06:42.703Z,22.81
2022-08-10T00:08:46.201Z,22.77
2022-08-10T00:10:49.252Z,22.77
2022-08-10T00:12:55.220Z,22.74
2022-08-10T00:15:00.072Z,22.74
2022-08-10T00:17:03.140Z,22.71
2022-08-10T00:19:06.296Z,22.72
2022-08-10T00:21:10.106Z,22.69
2022-08-10T00:23:13.536Z,22.65
2022-08-10T00:25:16.576Z,22.62
2022-08-10T00:27:52.230Z,22.61
2022-08-10T00:29:43.996Z,22.57
2022-08-10T00:31:58.114Z,22.54
2022-08-10T00:34:02.495Z,22.53
2022-08-10T00:36:05.844Z,22.47
2022-08-10T00:38:08.852Z,22.48
2022-08-10T00:40:13.136Z,22.46
2022-08-10T00:42:16.987Z,22.45
2022-08-10T00:44:20.320Z,22.39
2022-08-10T00:46:26.800Z,22.36
2022-08-10T00:48:30.611Z,22.29
2022-08-10T00:50:34.249Z,22.26
2022-08-10T00:52:38.545Z,22.28
2022-08-10T00:54:43.122Z,22.27
2022-08-10T00:57:17.847Z,22.23
2022-08-10T00:59:09.213Z,22.22
2022-08-10T01:02:09.109Z,22.21
2022-08-10T01:04:57.380Z,22.15
2022-08-10T01:06:02.970Z,22.13
2022-08-10T01:08:17.115Z,22.11
2022-08-10T01:10:28.504Z,22.07
2022-08-10T01:12:40.698Z,22.06
2022-08-10T01:14:49.971Z,22.04
2022-08-10T01:16:57.222Z,22.00
2022-08-10T01:19:05.787Z,21.98
2022-08-10T01:21:38.183Z,21.95
2022-08-10T01:23:59.901Z,21.96
2022-08-10T01:26:40.636Z,21.96
2022-08-10T01:28:52.279Z,21.93
2022-08-10T01:30:57.462Z,21.92
2022-08-10T01:33:04.701Z,21.90
2022-08-10T01:35:13.596Z,21.88
2022-08-10T01:37:19.398Z,21.85
2022-08-10T01:39:25.249Z,21.82
2022-08-10T01:41:45.645Z,21.79
2022-08-10T01:43:55.617Z,21.80
2022-08-10T01:46:03.156Z,21.80
2022-08-10T01:48:24.660Z,21.81
2022-08-10T01:50:31.694Z,21.78
2022-08-10T01:52:36.791Z,21.75
2022-08-10T01:54:41.048Z,21.71
2022-08-10T01:56:46.505Z,21.70
2022-08-10T01:58:52.479Z,21.66
2022-08-10T02:00:56.100Z,21.62
2022-08-10T02:03:03.230Z,21.57
2022-08-10T02:05:08.209Z,21.57
2022-08-10T02:07:16.100Z,21.57
2022-08-10T02:09:22.348Z,21.52
2022-08-10T02:11:28.827Z,21.48
2022-08-10T02:13:52.396Z,21.44
2022-08-10T02:16:01.511Z,21.40
2022-08-10T02:18:07.833Z,21.37
2022-08-10T02:20:14.117Z,21.34
2022-08-10T02:22:37.503Z,21.31
2022-08-10T02:24:42.591Z,21.27
2022-08-10T02:26:46.121Z,21.26
2022-08-10T02:28:49.320Z,21.20
2022-08-10T02:30:54.696Z,21.17
2022-08-10T02:33:01.948Z,21.16
2022-08-10T02:35:19.418Z,21.09
2022-08-10T02:37:27.303Z,21.09
2022-08-10T02:39:31.209Z,21.08
2022-08-10T02:45:02.829Z,21.05
2022-08-10T02:45:19.339Z,21.01
2022-08-10T02:46:36.628Z,21.00
2022-08-10T02:48:43.495Z,21.02
2022-08-10T02:50:52.117Z,21.00
2022-08-10T02:53:00.941Z,20.99
2022-08-10T02:55:17.677Z,20.96
2022-08-10T02:57:24.757Z,20.91
2022-08-10T02:59:38.578Z,20.89
2022-08-10T03:01:46.293Z,20.89
2022-08-10T03:03:53.315Z,20.89
2022-08-10T03:06:01.945Z,20.89
2022-08-10T03:08:07.256Z,20.88
2022-08-10T03:10:14.713Z,20.88
2022-08-10T03:12:36.790Z,20.86
2022-08-10T03:14:41.927Z,20.89
2022-08-10T03:16:45.583Z,20.89
2022-08-10T03:18:49.363Z,20.86
2022-08-10T03:20:52.920Z,20.84
2022-08-10T03:22:58.107Z,20.86
2022-08-10T03:25:02.594Z,20.84
2022-08-10T03:27:06.434Z,20.82
2022-08-10T03:29:11.139Z,20.84
2022-08-10T03:31:14.214Z,20.81
2022-08-10T03:33:18.514Z,20.76
2022-08-10T03:35:22.145Z,20.77
2022-08-10T03:37:25.665Z,20.76
2022-08-10T03:39:30.219Z,20.76
2022-08-10T03:41:36.560Z,20.74
2022-08-10T03:43:40.438Z,20.75
2022-08-10T03:45:55.005Z,20.74
2022-08-10T03:48:00.104Z,20.70
2022-08-10T03:50:27.752Z,20.69
2022-08-10T03:52:28.406Z,20.66
2022-08-10T03:54:33.418Z,20.61
2022-08-10T03:56:38.403Z,20.56
2022-08-10T03:58:41.919Z,20.57
2022-08-10T04:00:46.353Z,20.56
2022-08-10T04:02:52.476Z,20.54
2022-08-10T04:04:56.183Z,20.54
2022-08-10T04:07:00.761Z,20.55
2022-08-10T04:09:04.413Z,20.52
2022-08-10T04:11:08.900Z,20.53
2022-08-10T04:13:11.909Z,20.54
2022-08-10T04:15:14.927Z,20.53
2022-08-10T04:17:18.376Z,20.52
2022-08-10T04:19:44.013Z,20.53
2022-08-10T04:21:49.147Z,20.51
2022-08-10T04:23:53.350Z,20.50
2022-08-10T04:25:57.149Z,20.49
2022-08-10T04:28:01.684Z,20.48
2022-08-10T04:30:07.567Z,20.48
2022-08-10T04:32:11.266Z,20.48
2022-08-10T04:34:15.592Z,20.50
2022-08-10T04:36:19.613Z,20.51
2022-08-10T04:38:24.165Z,20.44
2022-08-10T04:40:29.967Z,20.44
2022-08-10T04:42:34.282Z,20.41
2022-08-10T04:44:39.110Z,20.36
2022-08-10T04:46:56.039Z,20.39
2022-08-10T04:49:02.245Z,20.39
2022-08-10T04:51:08.012Z,20.40
2022-08-10T04:53:14.274Z,20.40
2022-08-10T04:55:17.298Z,20.41
2022-08-10T04:57:20.395Z,20.41
2022-08-10T04:59:23.458Z,20.38
2022-08-10T05:02:21.650Z,20.39
2022-08-10T05:04:33.765Z,20.45
2022-08-10T05:06:13.960Z,20.46
2022-08-10T05:08:17.024Z,20.51
2022-08-10T05:10:20.048Z,20.55
2022-08-10T05:12:23.492Z,20.55
2022-08-10T05:14:26.625Z,20.59
2022-08-10T05:16:32.431Z,20.61
2022-08-10T05:18:35.791Z,20.64
2022-08-10T05:20:38.988Z,20.70
2022-08-10T05:22:43.599Z,20.74
2022-08-10T05:24:46.728Z,20.80
2022-08-10T05:27:00.590Z,20.89
2022-08-10T05:29:12.782Z,20.97
2022-08-10T05:31:22.621Z,21.14
2022-08-10T05:33:28.535Z,21.34
2022-08-10T05:35:56.462Z,21.60
2022-08-10T05:38:12.291Z,21.80
2022-08-10T05:40:17.443Z,22.07
2022-08-10T05:42:21.671Z,22.36
2022-08-10T05:44:25.296Z,22.58
2022-08-10T05:46:28.310Z,22.81
2022-08-10T05:48:54.461Z,22.97
2022-08-10T05:50:55.891Z,23.29
2022-08-10T05:53:03.748Z,23.55
2022-08-10T05:55:23.679Z,23.77
2022-08-10T05:57:26.753Z,23.97
2022-08-10T06:00:33.148Z,24.20
2022-08-10T06:02:33.531Z,24.23
2022-08-10T06:04:28.114Z,24.34
2022-08-10T06:06:33.878Z,24.54
2022-08-10T06:08:37.593Z,24.69
2022-08-10T06:12:23.599Z,24.91
2022-08-10T06:13:30.781Z,25.07
2022-08-10T06:15:50.594Z,25.14
2022-08-10T06:18:01.782Z,25.35
2022-08-10T06:20:07.753Z,25.43
2022-08-10T06:22:11.835Z,25.59
2022-08-10T06:24:17.321Z,25.73
2022-08-10T06:26:21.750Z,25.88
2022-08-10T06:28:26.797Z,26.13
2022-08-10T06:30:30.908Z,26.17
2022-08-10T06:32:34.183Z,26.31
2022-08-10T06:34:41.015Z,26.52
2022-08-10T06:36:45.869Z,26.45
2022-08-10T06:38:49.702Z,26.39
2022-08-10T06:40:57.026Z,26.48
2022-08-10T06:43:02.165Z,26.58
2022-08-10T06:45:08.821Z,26.90
2022-08-10T06:47:13.175Z,27.13
2022-08-10T06:49:25.948Z,27.30
2022-08-10T06:51:33.270Z,27.40
2022-08-10T06:53:53.012Z,27.48
2022-08-10T06:56:01.427Z,27.61
2022-08-10T06:58:04.852Z,27.52
2022-08-10T07:00:10.179Z,27.59
2022-08-10T07:02:18.061Z,27.79
2022-08-10T07:04:32.372Z,27.73
2022-08-10T07:06:37.600Z,27.85
2022-08-10T07:08:42.892Z,28.00
2022-08-10T07:10:46.876Z,28.03
2022-08-10T07:12:51.905Z,28.13
2022-08-10T07:14:55.617Z,28.14
2022-08-10T07:16:59.647Z,28.39
2022-08-10T07:19:02.965Z,28.53
2022-08-10T07:21:07.046Z,28.78
2022-08-10T07:23:56.830Z,28.83
2022-08-10T07:25:37.569Z,29.00
2022-08-10T07:27:59.596Z,28.85
2022-08-10T07:30:05.164Z,28.88
2022-08-10T07:32:09.289Z,28.98
2022-08-10T07:34:13.130Z,29.12
2022-08-10T07:36:32.565Z,29.48
2022-08-10T07:38:37.310Z,29.67
2022-08-10T07:40:41.985Z,29.64
2022-08-10T07:42:46.336Z,29.30
2022-08-10T07:44:50.574Z,29.29
2022-08-10T07:46:55.498Z,29.30
2022-08-10T07:49:01.461Z,29.24
2022-08-10T07:51:04.803Z,29.19
2022-08-10T07:53:11.102Z,29.22
2022-08-10T07:55:16.704Z,29.32
2022-08-10T07:57:31.845Z,29.55
2022-08-10T07:59:39.127Z,29.78
2022-08-10T08:01:44.278Z,29.93
2022-08-10T08:04:04.985Z,30.11
2022-08-10T08:06:12.653Z,30.07
2022-08-10T08:08:16.701Z,29.93
2022-08-10T08:10:20.596Z,29.90
2022-08-10T08:12:25.644Z,29.91
2022-08-10T08:14:28.901Z,30.00
2022-08-10T08:16:33.360Z,29.98
2022-08-10T08:18:37.264Z,29.93
2022-08-10T08:20:41.115Z,29.80
2022-08-10T08:24:16.511Z,29.81
2022-08-10T08:25:13.025Z,29.83
2022-08-10T08:27:19.693Z,29.99
2022-08-10T08:29:25.563Z,30.18
2022-08-10T08:31:29.208Z,30.25
2022-08-10T08:33:41.166Z,30.15
2022-08-10T08:35:46.155Z,30.33
2022-08-10T08:38:32.798Z,30.16
2022-08-10T08:40:18.055Z,30.37
2022-08-10T08:42:34.189Z,30.19
2022-08-10T08:44:49.137Z,30.24
2022-08-10T08:48:04.465Z,30.20
2022-08-10T08:50:05.519Z,30.17
2022-08-10T08:52:24.616Z,30.07
2022-08-10T08:54:45.927Z,30.08
2022-08-10T08:56:55.586Z,30.13
2022-08-10T08:59:10.188Z,30.43
2022-08-10T09:01:24.853Z,30.56
2022-08-10T09:03:56.917Z,30.44
2022-08-10T09:06:08.885Z,30.40
2022-08-10T09:08:24.002Z,30.32
2022-08-10T09:10:37.148Z,30.31
2022-08-10T09:12:46.434Z,30.60
2022-08-10T09:14:53.980Z,30.67
2022-08-10T09:17:07.008Z,30.79
2022-08-10T09:19:35.223Z,30.70
2022-08-10T09:21:58.624Z,30.75
2022-08-10T09:24:16.447Z,30.80
2022-08-10T09:26:23.201Z,30.75
2022-08-10T09:28:30.054Z,30.59
2022-08-10T09:30:38.671Z,30.31
2022-08-10T09:36:16.200Z,30.14
2022-08-10T09:36:21.267Z,30.26
2022-08-10T09:38:02.160Z,30.40
2022-08-10T09:41:00.028Z,30.48
2022-08-10T09:42:47.197Z,30.55
2022-08-10T09:45:04.732Z,30.61
2022-08-10T09:47:21.235Z,30.70
2022-08-10T09:49:57.073Z,30.60
2022-08-10T09:52:11.058Z,30.41
2022-08-10T09:54:22.809Z,30.32
2022-08-10T09:56:30.883Z,30.11
2022-08-10T09:58:39.718Z,30.18
2022-08-10T10:00:47.487Z,30.14
2022-08-10T10:03:01.482Z,30.10
2022-08-10T10:05:13.465Z,30.15
2022-08-10T10:07:26.201Z,30.24
2022-08-10T10:09:33.346Z,30.21
2022-08-10T10:11:44.952Z,30.04
2022-08-10T10:14:03.893Z,30.11
2022-08-10T10:16:23.480Z,30.02
2022-08-10T10:18:35.484Z,30.03
2022-08-10T10:20:43.509Z,30.21
2022-08-10T10:23:02.915Z,30.24
2022-08-10T10:25:19.874Z,30.17
2022-08-10T10:27:30.943Z,30.17
2022-08-10T10:29:58.203Z,30.14
2022-08-10T10:32:05.505Z,30.11
2022-08-10T10:34:15.331Z,30.14
2022-08-10T10:36:20.646Z,30.08
2022-08-10T10:38:26.977Z,29.90
2022-08-10T10:40:35.576Z,29.83
2022-08-10T10:42:45.835Z,29.57
2022-08-10T10:44:54.392Z,29.38
2022-08-10T10:47:06.043Z,29.66
2022-08-10T10:49:17.556Z,29.60
2022-08-10T10:51:27.590Z,29.55
2022-08-10T10:53:36.296Z,29.71
2022-08-10T10:56:13.294Z,29.75
2022-08-10T10:58:18.388Z,29.78
2022-08-10T11:00:25.959Z,29.89
2022-08-10T11:02:47.217Z,29.77
2022-08-10T11:04:58.991Z,29.80
2022-08-10T11:07:10.357Z,29.91
2022-08-10T11:10:04.726Z,29.97
2022-08-10T11:12:01.660Z,29.98
2022-08-10T11:14:27.175Z,29.90
2022-08-10T11:16:43.224Z,30.03
2022-08-10T11:19:04.863Z,30.08
2022-08-10T11:21:25.398Z,30.11
2022-08-10T11:23:34.424Z,30.12
2022-08-10T11:25:40.056Z,30.03
2022-08-10T11:27:49.010Z,29.90
2022-08-10T11:30:00.316Z,29.66
2022-08-10T11:32:05.860Z,29.56
2022-08-10T11:34:47.665Z,29.72
2022-08-10T11:36:45.205Z,29.71
2022-08-10T11:39:13.976Z,29.69
2022-08-10T11:42:07.069Z,29.79
2022-08-10T11:44:09.529Z,29.77
2022-08-10T11:46:28.010Z,29.75
2022-08-10T11:48:53.239Z,29.82
2022-08-10T11:51:01.296Z,29.86
2022-08-10T11:53:14.804Z,29.81
2022-08-10T11:55:21.440Z,29.72
2022-08-10T11:57:52.930Z,29.60
2022-08-10T11:59:59.403Z,29.66
2022-08-10T12:02:03.416Z,29.77
2022-08-10T12:04:11.880Z,29.85
2022-08-10T12:06:34.009Z,29.89
2022-08-10T12:10:05.134Z,29.64
2022-08-10T12:11:08.817Z,29.54
2022-08-10T12:13:16.721Z,29.57
2022-08-10T12:15:24.715Z,29.65
2022-08-10T12:17:31.327Z,29.69
2022-08-10T12:20:02.176Z,29.52
2022-08-10T12:22:06.835Z,29.59
2022-08-10T12:24:13.120Z,29.60
2022-08-10T12:26:20.770Z,29.57
2022-08-10T12:28:49.910Z,29.51
2022-08-10T12:30:57.693Z,29.53
2022-08-10T12:33:03.302Z,29.63
2022-08-10T12:35:17.994Z,29.58
2022-08-10T12:37:32.522Z,29.62
2022-08-10T12:39:41.329Z,29.66
2022-08-10T12:41:53.037Z,29.74
2022-08-10T12:44:07.896Z,29.74
2022-08-10T12:46:19.307Z,29.69
2022-08-10T12:48:31.386Z,29.64
2022-08-10T12:50:40.544Z,29.63
2022-08-10T12:52:51.537Z,29.71
2022-08-10T12:54:54.971Z,29.74
2022-08-10T12:57:01.838Z,29.79
2022-08-10T12:59:06.309Z,29.81
2022-08-10T13:01:17.811Z,29.83
2022-08-10T13:04:20.781Z,29.82
2022-08-10T13:06:00.259Z,29.82
2022-08-10T13:08:28.145Z,29.74
2022-08-10T13:10:31.456Z,29.72
2022-08-10T13:12:40.482Z,29.64
2022-08-10T13:14:49.670Z,29.65
2022-08-10T13:16:53.261Z,29.68
2022-08-10T13:18:59.853Z,29.70
2022-08-10T13:21:19.671Z,29.74
2022-08-10T13:23:26.703Z,29.76
2022-08-10T13:25:31.766Z,29.78
2022-08-10T13:28:00.410Z,29.82
2022-08-10T13:30:06.730Z,29.84
2022-08-10T13:32:13.502Z,29.82
2022-08-10T13:34:43.697Z,29.77
2022-08-10T13:36:42.667Z,29.81
2022-08-10T13:38:48.745Z,29.85
2022-08-10T13:40:53.030Z,29.82
2022-08-10T13:42:59.592Z,29.84
2022-08-10T13:45:08.064Z,29.82
2022-08-10T13:47:14.568Z,29.81
2022-08-10T13:49:19.402Z,29.86
2022-08-10T13:51:56.883Z,29.88
2022-08-10T13:53:49.861Z,29.90
2022-08-10T13:55:56.865Z,29.97
2022-08-10T13:58:03.492Z,29.98
2022-08-10T14:00:37.464Z,30.08
2022-08-10T14:02:37.479Z,30.14
2022-08-10T14:04:45.644Z,30.13
2022-08-10T14:06:54.578Z,30.13
2022-08-10T14:09:02.282Z,30.16
2022-08-10T14:11:10.963Z,30.05
2022-08-10T14:13:18.427Z,29.93
2022-08-10T14:15:28.797Z,29.93
2022-08-10T14:17:32.958Z,29.98
2022-08-10T14:19:43.625Z,30.00
2022-08-10T14:21:47.497Z,29.96
2022-08-10T14:23:53.645Z,29.92
2022-08-10T14:26:03.121Z,29.92
2022-08-10T14:28:08.648Z,29.95
2022-08-10T14:30:15.576Z,29.95
2022-08-10T14:32:20.300Z,29.93
2022-08-10T14:36:16.501Z,29.90
2022-08-10T14:36:53.912Z,29.90
2022-08-10T14:38:57.223Z,29.89
2022-08-10T14:41:02.227Z,29.85
2022-08-10T14:43:07.874Z,29.85
2022-08-10T14:45:20.443Z,29.84
2022-08-10T14:47:54.230Z,29.86
2022-08-10T14:49:56.940Z,29.84
2022-08-10T14:52:03.115Z,29.80
2022-08-10T14:54:06.618Z,29.74
2022-08-10T14:56:13.666Z,29.74
2022-08-10T14:58:21.201Z,29.71
2022-08-10T15:00:35.356Z,29.67
2022-08-10T15:02:53.234Z,29.61
2022-08-10T15:05:01.427Z,29.59
2022-08-10T15:07:12.327Z,29.61
2022-08-10T15:09:19.249Z,29.67
2022-08-10T15:12:11.880Z,29.66
2022-08-10T15:14:15.183Z,29.64
2022-08-10T15:16:15.020Z,29.65
2022-08-10T15:18:18.597Z,29.64
2022-08-10T15:20:31.291Z,29.63
2022-08-10T15:22:37.957Z,29.68
2022-08-10T15:25:01.788Z,29.73
2022-08-10T15:27:08.738Z,29.73
2022-08-10T15:29:23.762Z,29.72
2022-08-10T15:31:33.580Z,29.68
2022-08-10T15:34:04.588Z,29.66
2022-08-10T15:36:26.552Z,29.69
2022-08-10T15:38:34.713Z,29.72
2022-08-10T15:40:50.771Z,29.70
2022-08-10T15:42:58.207Z,29.68
2022-08-10T15:45:01.643Z,29.67
2022-08-10T15:47:10.623Z,29.58
2022-08-10T15:49:20.473Z,29.57
2022-08-10T15:51:32.534Z,29.56
2022-08-10T15:53:54.784Z,29.56
2022-08-10T15:56:10.249Z,29.53
2022-08-10T15:58:30.152Z,29.51
2022-08-10T16:00:50.933Z,29.46
2022-08-10T16:02:59.499Z,29.46
2022-08-10T16:05:08.068Z,29.51
2022-08-10T16:07:13.749Z,29.55
2022-08-10T16:10:22.650Z,29.57
2022-08-10T16:11:46.340Z,29.55
2022-08-10T16:14:01.172Z,29.53
2022-08-10T16:16:07.422Z,29.57
2022-08-10T16:18:14.473Z,29.56
2022-08-10T16:20:22.791Z,29.53
2022-08-10T16:22:36.208Z,29.47
2022-08-10T16:24:42.770Z,29.48
2022-08-10T16:26:48.167Z,29.46
2022-08-10T16:29:06.392Z,29.45
2022-08-10T16:31:15.328Z,29.44
2022-08-10T16:33:24.457Z,29.43
2022-08-10T16:35:52.518Z,29.37
2022-08-10T16:37:59.837Z,29.33
2022-08-10T16:40:04.332Z,29.31
2022-08-10T16:42:10.730Z,29.30
2022-08-10T16:44:14.975Z,29.25
2022-08-10T16:46:20.088Z,29.25
2022-08-10T16:48:49.430Z,29.26
2022-08-10T16:50:53.491Z,29.21
2022-08-10T16:53:00.237Z,29.22
2022-08-10T16:55:17.219Z,29.17
2022-08-10T16:57:29.314Z,29.14
2022-08-10T16:59:35.563Z,29.13
2022-08-10T17:01:40.793Z,29.11
2022-08-10T17:04:08.041Z,29.09
2022-08-10T17:06:13.623Z,29.06
2022-08-10T17:08:18.729Z,29.03
2022-08-10T17:10:22.680Z,28.99
2022-08-10T17:12:27.479Z,28.96
2022-08-10T17:14:31.075Z,28.91
2022-08-10T17:16:35.505Z,28.91
2022-08-10T17:18:41.088Z,28.87
2022-08-10T17:20:45.727Z,28.85
2022-08-10T17:22:54.647Z,28.84
2022-08-10T17:25:02.036Z,28.84
2022-08-10T17:28:04.124Z,28.83
2022-08-10T17:29:58.229Z,28.77
2022-08-10T17:31:59.747Z,28.76
2022-08-10T17:34:11.453Z,28.71
2022-08-10T17:36:17.631Z,28.69
2022-08-10T17:38:22.785Z,28.59
2022-08-10T17:40:27.814Z,28.60
2022-08-10T17:42:31.919Z,28.59
2022-08-10T17:44:36.609Z,28.55
2022-08-10T17:46:41.155Z,28.55
2022-08-10T17:48:45.930Z,28.51
2022-08-10T17:50:50.614Z,28.50
2022-08-10T17:52:59.840Z,28.46
2022-08-10T17:55:06.232Z,28.44
2022-08-10T17:57:12.408Z,28.41
2022-08-10T17:59:17.045Z,28.39
2022-08-10T18:01:41.747Z,28.36
2022-08-10T18:03:51.967Z,28.30
2022-08-10T18:05:57.661Z,28.29
2022-08-10T18:08:03.502Z,28.24
2022-08-10T18:10:11.087Z,28.21
2022-08-10T18:12:18.512Z,28.17
2022-08-10T18:14:22.852Z,28.13
2022-08-10T18:16:28.351Z,28.10
2022-08-10T18:18:34.075Z,28.06
2022-08-10T18:20:38.719Z,28.02
2022-08-10T18:22:45.600Z,27.95
2022-08-10T18:24:50.620Z,27.90
2022-08-10T18:26:55.057Z,27.87
2022-08-10T18:28:58.459Z,27.86
2022-08-10T18:31:02.787Z,27.82
2022-08-10T18:33:10.381Z,27.79
2022-08-10T18:35:14.083Z,27.76
2022-08-10T18:37:20.584Z,27.71
2022-08-10T18:39:26.137Z,27.64
2022-08-10T18:41:38.600Z,27.55
2022-08-10T18:44:11.616Z,27.45
2022-08-10T18:46:22.005Z,27.40
2022-08-10T18:48:28.105Z,27.30
2022-08-10T18:50:33.186Z,27.24
2022-08-10T18:52:38.359Z,27.23
2022-08-10T18:54:45.745Z,27.17
2022-08-10T18:56:57.528Z,27.09
2022-08-10T18:59:10.087Z,26.99
2022-08-10T19:01:21.513Z,26.91
2022-08-10T19:03:54.644Z,26.80
2022-08-10T19:06:13.337Z,26.70
2022-08-10T19:09:09.569Z,26.57
2022-08-10T19:11:46.675Z,26.41
2022-08-10T19:13:59.818Z,26.31
2022-08-10T19:16:15.157Z,26.22
2022-08-10T19:18:24.848Z,26.13
2022-08-10T19:20:35.363Z,26.07
2022-08-10T19:22:47.689Z,26.00
2022-08-10T19:24:58.261Z,25.93
2022-08-10T19:27:11.602Z,25.89
2022-08-10T19:30:01.057Z,25.81
2022-08-10T19:31:59.258Z,25.72
2022-08-10T19:34:11.733Z,25.63
2022-08-10T19:36:19.696Z,25.57
2022-08-10T19:38:33.176Z,25.53
2022-08-10T19:40:44.290Z,25.46
2022-08-10T19:42:54.204Z,25.39
2022-08-10T19:45:05.936Z,25.37
2022-08-10T19:47:15.676Z,25.28
2022-08-10T19:49:24.231Z,25.22
2022-08-10T19:51:31.234Z,25.14
2022-08-10T19:53:41.518Z,25.10
2022-08-10T19:55:51.146Z,25.08
2022-08-10T19:57:58.414Z,25.05
2022-08-10T20:00:18.905Z,25.01
2022-08-10T20:02:28.302Z,24.95
2022-08-10T20:04:33.111Z,24.91
2022-08-10T20:06:44.236Z,24.87
2022-08-10T20:08:53.406Z,24.79
2022-08-10T20:11:02.350Z,24.72
2022-08-10T20:13:11.684Z,24.67
2022-08-10T20:15:24.338Z,24.61
2022-08-10T20:17:51.106Z,24.57
2022-08-10T20:20:00.231Z,24.55
2022-08-10T20:22:06.672Z,24.47
2022-08-10T20:24:12.119Z,24.44
2022-08-10T20:26:19.657Z,24.43
2022-08-10T20:28:35.501Z,24.42
2022-08-10T20:30:49.620Z,24.35
2022-08-10T20:32:57.743Z,24.28
2022-08-10T20:35:11.117Z,24.24
2022-08-10T20:37:24.885Z,24.18
2022-08-10T20:39:47.881Z,24.13
2022-08-10T20:41:58.970Z,24.11
2022-08-10T20:44:09.037Z,24.06
2022-08-10T20:46:21.331Z,23.98
2022-08-10T20:48:28.145Z,23.92
2022-08-10T20:50:36.893Z,23.88
2022-08-10T20:52:41.563Z,23.83
2022-08-10T20:54:48.362Z,23.80
2022-08-10T20:57:01.989Z,23.78
2022-08-10T20:59:17.671Z,23.76
2022-08-10T21:02:07.499Z,23.77
2022-08-10T21:04:01.577Z,23.71
2022-08-10T21:06:12.676Z,23.67
2022-08-10T21:08:18.638Z,23.69
2022-08-10T21:10:39.244Z,23.72
2022-08-10T21:12:51.076Z,23.72
2022-08-10T21:14:59.381Z,23.72
2022-08-10T21:17:14.014Z,23.73
2022-08-10T21:19:32.359Z,23.74
2022-08-10T21:21:58.912Z,23.73
2022-08-10T21:24:05.444Z,23.70
2022-08-10T21:26:11.697Z,23.66
2022-08-10T21:28:40.638Z,23.63
2022-08-10T21:31:10.425Z,23.57
2022-08-10T21:33:17.593Z,23.54
2022-08-10T21:35:37.713Z,23.54
2022-08-10T21:37:56.644Z,23.52
2022-08-10T21:40:35.546Z,23.48
2022-08-10T21:43:05.014Z,23.48
2022-08-10T21:45:58.393Z,23.47
2022-08-10T21:48:30.262Z,23.41
2022-08-10T21:51:00.028Z,23.38
2022-08-10T21:53:44.797Z,23.34
2022-08-10T21:56:14.333Z,23.29
2022-08-10T21:58:36.963Z,23.28
2022-08-10T22:01:02.314Z,23.23
2022-08-10T22:03:23.564Z,23.14
2022-08-10T22:05:47.815Z,23.09
2022-08-10T22:08:14.999Z,23.06
2022-08-10T22:10:39.561Z,23.02
2022-08-10T22:13:03.261Z,22.97
2022-08-10T22:16:03.990Z,22.95
2022-08-10T22:18:15.645Z,22.93
2022-08-10T22:20:54.185Z,22.88
2022-08-10T22:23:29.472Z,22.86
2022-08-10T22:26:08.859Z,22.86
2022-08-10T22:28:33.973Z,22.87
2022-08-10T22:31:26.877Z,22.86
2022-08-10T22:33:50.862Z,22.79
2022-08-10T22:36:24.206Z,22.78
2022-08-10T22:39:02.190Z,22.81
2022-08-10T22:41:28.022Z,22.81
2022-08-10T22:43:51.114Z,22.78
2022-08-10T22:46:13.935Z,22.77
2022-08-10T22:48:34.514Z,22.77
2022-08-10T22:50:42.503Z,22.72
2022-08-10T22:53:03.093Z,22.72
2022-08-10T22:55:34.596Z,22.72
2022-08-10T22:58:02.979Z,22.72
2022-08-10T23:00:15.240Z,22.68
2022-08-10T23:02:33.316Z,22.68
2022-08-10T23:04:44.776Z,22.65
2022-08-10T23:06:55.914Z,22.61
2022-08-10T23:09:01.477Z,22.63
2022-08-10T23:11:08.772Z,22.59
2022-08-10T23:13:14.643Z,22.59
2022-08-10T23:15:57.082Z,22.57
2022-08-10T23:18:18.681Z,22.55
2022-08-10T23:20:22.805Z,22.54
2022-08-10T23:22:33.477Z,22.53
2022-08-10T23:24:40.809Z,22.52
2022-08-10T23:26:45.801Z,22.52
2022-08-10T23:28:58.361Z,22.53
2022-08-10T23:31:11.214Z,22.52
2022-08-10T23:33:15.827Z,22.55
2022-08-10T23:36:30.233Z,22.50
2022-08-10T23:38:12.047Z,22.47
2022-08-10T23:40:16.740Z,22.47
2022-08-10T23:42:22.630Z,22.46
2022-08-10T23:44:26.741Z,22.45
2022-08-10T23:46:33.384Z,22.42
2022-08-10T23:48:38.464Z,22.39
2022-08-10T23:50:41.544Z,22.38
2022-08-10T23:53:03.808Z,22.36
2022-08-10T23:55:24.775Z,22.34
2022-08-10T23:57:29.586Z,22.33
2022-08-10T23:59:33.365Z,22.32
